»·PEaware :: AAL180 KLAX-KLAS

AAL180 :: KLAX-KLAS

FLIGHT INFORMATION

Flight Status: Arrived
Operator:
American Airlines
More flights by this operator :: More flights under this callsign
Pilot: Brian A. (9771)
Aircraft: BOEING 737-800
(B738)
More flights by this aircraft type
Origin: KLAX Los Angeles Intl
United States
Destination: KLAS McCarran Intl
United States
More flights between these airports :: More routes between these airports
Route: +ORCKA2 MISEN KEPEC6
File this flight plan on PilotEdge
Remarks:
Altitude:
(Current/Filed)
25,000ft
Speed:
(Current/Filed)
450kts
Departed: 06-Jan-18 06:40 PM
Arrived: 06-Jan-18 07:40 PM
Distance/Time
Traveled:
205nm/1:00
Distance/Time
To Go:
Arrived

Flight Plot

Page will automatically refresh every two minutes.

Flight plan parsing failed; only flown route is shown


Map Options




Map Legend


Flown Route
Filed Route
Departure Airport
Arrival Airport
Navaid (VOR, NDB)
Fix

Horizontal Profiles

Position Reports

Time Latitude Longitude Heading Altitude Ground
Speed
06-Jan-18 17:56 33.941248 -118.406309 270 133ft 0kts
06-Jan-18 17:57 33.941248 -118.406309 270 133ft 0kts
06-Jan-18 17:58 33.942075 -118.405174 82 133ft 0kts
06-Jan-18 17:59 33.942075 -118.405174 82 133ft 0kts
06-Jan-18 18:00 33.942075 -118.405174 82 133ft 0kts
06-Jan-18 18:01 33.942075 -118.405174 82 133ft 0kts
06-Jan-18 18:02 33.942075 -118.405174 82 133ft 0kts
06-Jan-18 18:03 33.942075 -118.405174 82 133ft 0kts
06-Jan-18 18:04 33.942075 -118.405174 82 134ft 0kts
06-Jan-18 18:05 33.942075 -118.405174 82 134ft 0kts
06-Jan-18 18:06 33.942075 -118.405174 82 134ft 0kts
06-Jan-18 18:07 33.942075 -118.405174 82 134ft 0kts
06-Jan-18 18:08 33.942075 -118.405174 82 134ft 0kts
06-Jan-18 18:09 33.942075 -118.405174 82 134ft 0kts
06-Jan-18 18:10 33.942075 -118.405174 82 134ft 0kts
06-Jan-18 18:11 33.942075 -118.405174 82 134ft 0kts
06-Jan-18 18:12 33.942075 -118.405174 82 134ft 0kts
06-Jan-18 18:13 33.942075 -118.405174 82 134ft 0kts
06-Jan-18 18:14 33.942075 -118.405174 82 134ft 0kts
06-Jan-18 18:15 33.942075 -118.405174 82 134ft 0kts
06-Jan-18 18:16 33.942075 -118.405174 82 134ft 0kts
06-Jan-18 18:17 33.942075 -118.405174 82 134ft 0kts
06-Jan-18 18:18 33.942075 -118.405174 82 134ft 0kts
06-Jan-18 18:19 33.942075 -118.405174 82 134ft 0kts
06-Jan-18 18:20 33.942075 -118.405174 82 134ft 0kts
06-Jan-18 18:21 33.942075 -118.405174 82 134ft 0kts
06-Jan-18 18:22 33.942075 -118.405174 82 134ft 0kts
06-Jan-18 18:23 33.942075 -118.405174 82 134ft 0kts
06-Jan-18 18:24 33.942075 -118.405174 82 134ft 0kts
06-Jan-18 18:25 33.942075 -118.405174 82 134ft 0kts
06-Jan-18 18:26 33.942075 -118.405174 82 134ft 0kts
06-Jan-18 18:27 33.942075 -118.405174 82 134ft 0kts
06-Jan-18 18:28 33.942075 -118.405174 82 134ft 0kts
06-Jan-18 18:29 33.942075 -118.405174 82 134ft 0kts
06-Jan-18 18:30 33.942075 -118.405174 82 134ft 0kts
06-Jan-18 18:31 33.942075 -118.405174 82 134ft 0kts
06-Jan-18 18:32 33.942075 -118.405174 82 134ft 0kts
06-Jan-18 18:33 33.942075 -118.405174 82 134ft 0kts
06-Jan-18 18:34 33.942075 -118.405174 82 134ft 0kts
06-Jan-18 18:35 33.942032 -118.405591 82 134ft 0kts
06-Jan-18 18:36 33.942032 -118.405592 82 134ft 0kts
06-Jan-18 18:37 33.942032 -118.405591 82 134ft 0kts
06-Jan-18 18:38 33.942032 -118.405589 82 134ft 0kts
06-Jan-18 18:39 33.942032 -118.405588 82 134ft 0kts
06-Jan-18 18:40 33.942032 -118.405586 82 134ft 0kts
06-Jan-18 18:41 33.942033 -118.405585 82 134ft 0kts
06-Jan-18 18:42 33.942033 -118.405583 82 134ft 0kts
06-Jan-18 18:43 33.942033 -118.405581 82 134ft 0kts
06-Jan-18 18:44 33.942034 -118.405458 100 134ft 5kts
06-Jan-18 18:45 33.938597 -118.405209 149 134ft 14kts
06-Jan-18 18:46 33.938929 -118.398974 83 134ft 42kts
06-Jan-18 18:47 33.940322 -118.385510 84 134ft 28kts
06-Jan-18 18:48 33.940704 -118.380732 107 134ft 0kts
06-Jan-18 18:49 33.940704 -118.380731 107 134ft 0kts
06-Jan-18 18:50 33.940703 -118.380729 107 134ft 0kts
06-Jan-18 18:51 33.939503 -118.382232 262 134ft 34kts
06-Jan-18 18:52 33.934858 -118.422881 259 1092ft 158kts
06-Jan-18 18:53 33.924049 -118.483193 247 2923ft 210kts
06-Jan-18 18:54 33.900808 -118.551588 248 4937ft 249kts
06-Jan-18 18:55 33.903692 -118.629743 320 5323ft 265kts
06-Jan-18 18:56 33.970901 -118.609878 55 8701ft 303kts
06-Jan-18 18:57 33.969311 -118.507114 103 9988ft 320kts
06-Jan-18 18:58 33.961927 -118.392352 70 11161ft 382kts
06-Jan-18 18:59 34.018728 -118.281013 54 13755ft 401kts
06-Jan-18 19:00 34.083137 -118.167769 52 16465ft 418kts
06-Jan-18 19:01 34.150181 -118.049017 52 18922ft 436kts
06-Jan-18 19:02 34.219634 -117.925983 51 21137ft 452kts
06-Jan-18 19:03 34.291313 -117.797897 50 23062ft 467kts
06-Jan-18 19:04 34.364486 -117.667511 49 23370ft 471kts
06-Jan-18 19:05 34.441981 -117.538150 49 25067ft 483kts
06-Jan-18 19:06 34.520880 -117.405406 49 25178ft 483kts
06-Jan-18 19:07 34.599342 -117.273396 49 25178ft 483kts
06-Jan-18 19:08 34.677902 -117.140587 49 25172ft 483kts
06-Jan-18 19:09 34.758528 -117.003865 49 25154ft 515kts
06-Jan-18 19:10 34.843203 -116.859272 50 25117ft 529kts
06-Jan-18 19:11 34.928514 -116.712629 50 25101ft 530kts
06-Jan-18 19:12 35.010478 -116.567604 50 25098ft 490kts
06-Jan-18 19:13 35.083182 -116.438081 50 24613ft 447kts
06-Jan-18 19:14 35.161889 -116.328448 38 24099ft 406kts
06-Jan-18 19:15 35.235961 -116.236038 37 24086ft 356kts
06-Jan-18 19:16 35.302084 -116.152913 36 23996ft 337kts
06-Jan-18 19:17 35.373063 -116.063692 39 20833ft 397kts
06-Jan-18 19:18 35.452116 -115.964031 40 18036ft 405kts
06-Jan-18 19:19 35.529291 -115.866504 41 15840ft 389kts
06-Jan-18 19:20 35.601366 -115.774689 41 14428ft 358kts
06-Jan-18 19:21 35.669294 -115.687952 41 13125ft 347kts
06-Jan-18 19:22 35.734014 -115.605261 41 13007ft 332kts
06-Jan-18 19:23 35.815358 -115.570776 355 13012ft 309kts
06-Jan-18 19:24 35.901514 -115.567326 354 13011ft 309kts
06-Jan-18 19:25 35.983715 -115.538681 42 12759ft 340kts
06-Jan-18 19:26 36.013090 -115.427258 65 11563ft 341kts
06-Jan-18 19:27 36.028262 -115.315181 97 10271ft 334kts
06-Jan-18 19:28 36.018483 -115.201488 97 8774ft 331kts
06-Jan-18 19:29 36.010975 -115.091057 96 8004ft 302kts
06-Jan-18 19:30 36.005271 -114.994853 96 8032ft 269kts
06-Jan-18 19:31 35.999660 -114.902203 97 7984ft 263kts
06-Jan-18 19:32 35.994371 -114.816164 98 7956ft 233kts
06-Jan-18 19:33 35.989372 -114.739579 98 7972ft 221kts
06-Jan-18 19:34 35.984231 -114.662872 98 7989ft 220kts
06-Jan-18 19:35 36.006340 -114.603810 15 7970ft 209kts
06-Jan-18 19:36 36.059329 -114.610797 300 7959ft 186kts
06-Jan-18 19:37 36.068767 -114.671233 271 8008ft 178kts
06-Jan-18 19:38 36.072862 -114.732450 268 7991ft 178kts
06-Jan-18 19:39 36.073784 -114.794886 266 7270ft 183kts
06-Jan-18 19:40 36.073872 -114.849752 265 6391ft 145kts
06-Jan-18 19:41 36.073845 -114.900323 266 5632ft 147kts
06-Jan-18 19:42 36.073805 -114.951477 266 4878ft 149kts
06-Jan-18 19:43 36.073763 -115.001890 267 4065ft 146kts
06-Jan-18 19:44 36.073720 -115.052104 267 3289ft 146kts
06-Jan-18 19:45 36.073677 -115.102307 268 2514ft 144kts
06-Jan-18 19:46 36.073592 -115.143940 269 2123ft 33kts
06-Jan-18 19:47 36.074181 -115.149456 300 2123ft 0kts
06-Jan-18 19:48 36.074208 -115.149512 300 2123ft 5kts
06-Jan-18 19:49 36.078885 -115.152960 72 2123ft 17kts
06-Jan-18 19:50 36.082120 -115.152538 344 2123ft 5kts
06-Jan-18 19:51 36.082286 -115.152593 345 2123ft 0kts
06-Jan-18 19:52 36.082287 -115.152593 345 2123ft 0kts
06-Jan-18 19:53 36.082287 -115.152593 345 2123ft 0kts
06-Jan-18 19:54 36.082287 -115.152593 345 2123ft 0kts
06-Jan-18 19:55 36.082287 -115.152593 345 2123ft 0kts
06-Jan-18 19:56 36.082287 -115.152593 345 2123ft 0kts
06-Jan-18 19:57 36.082287 -115.152593 345 2123ft 0kts

Navigation Log

Ident Type
Flight plan parsing failed, navigation log unavailable